Time;durP1;ratioP1;P1;durP2;ratioP2;P2;SDS_P1;SDS_P2;PMS_P1;PMS_P2;Temp;Humidity;BMP_temperature;BMP_pressure;BME280_temperature;BME280_humidity;BME280_pressure;Samples;Min_cycle;Max_cycle;Signal;HPM_P1;HPM_P2
2023/12/06 00:00:03;;;;;;;23.97;11.13;;;;;;;;;;690091;28;871;-68
2023/12/06 00:00:25;;;;;;;21.00;10.63;;;;;;;;;;687756;28;1778;-68
2023/12/06 00:00:45;;;;;;;23.30;10.57;;;;;;;;;;689612;28;4410;-68
2023/12/06 00:01:06;;;;;;;23.13;10.43;;;;;;;;;;689935;28;978;-68
2023/12/06 00:01:26;;;;;;;23.20;11.40;;;;;;;;;;688708;28;2192;-68
2023/12/06 00:01:46;;;;;;;22.80;11.67;;;;;;;;;;690481;28;878;-68
2023/12/06 00:02:07;;;;;;;22.17;11.10;;;;;;;;;;689992;28;1095;-68
2023/12/06 00:02:27;;;;;;;23.17;10.80;;;;;;;;;;688022;28;1052;-68
2023/12/06 00:02:49;;;;;;;22.53;10.83;;;;;;;;;;690154;28;940;-68
2023/12/06 00:03:09;;;;;;;22.20;10.52;;;;;;;;;;687424;28;1004;-69
2023/12/06 00:03:30;;;;;;;20.33;10.13;;;;;;;;;;685917;28;1044;-69
2023/12/06 00:03:50;;;;;;;20.93;10.40;;;;;;;;;;686470;28;4875;-69
2023/12/06 00:04:10;;;;;;;22.07;10.47;;;;;;;;;;687644;28;932;-68
2023/12/06 00:04:32;;;;;;;21.52;10.10;;;;;;;;;;688464;28;1633;-68
2023/12/06 00:04:53;;;;;;;19.13;9.75;;;;;;;;;;688340;28;1401;-68
2023/12/06 00:05:14;;;;;;;19.60;10.07;;;;;;;;;;686863;28;991;-68
2023/12/06 00:05:35;;;;;;;21.70;10.32;;;;;;;;;;687420;28;1042;-68
2023/12/06 00:05:55;;;;;;;21.13;10.75;;;;;;;;;;689826;28;905;-69
2023/12/06 00:06:16;;;;;;;20.00;10.70;;;;;;;;;;689115;28;1575;-68
2023/12/06 00:06:36;;;;;;;19.42;10.15;;;;;;;;;;689085;28;1094;-68
2023/12/06 00:06:58;;;;;;;21.00;10.38;;;;;;;;;;689407;28;4628;-68
2023/12/06 00:07:19;;;;;;;19.73;10.00;;;;;;;;;;688633;28;2492;-68
2023/12/06 00:07:40;;;;;;;20.65;10.15;;;;;;;;;;690187;28;1049;-69
2023/12/06 00:08:01;;;;;;;19.03;9.80;;;;;;;;;;689534;28;895;-68
2023/12/06 00:08:22;;;;;;;20.95;10.35;;;;;;;;;;688916;28;1600;-68
2023/12/06 00:08:43;;;;;;;19.83;10.07;;;;;;;;;;690181;28;805;-69
2023/12/06 00:09:03;;;;;;;20.50;10.17;;;;;;;;;;689676;28;900;-68
2023/12/06 00:09:24;;;;;;;20.55;10.57;;;;;;;;;;685608;28;2541;-68
2023/12/06 00:09:45;;;;;;;21.25;10.57;;;;;;;;;;686774;28;4319;-68
2023/12/06 00:10:06;;;;;;;21.00;10.38;;;;;;;;;;687211;28;1161;-68
2023/12/06 00:10:26;;;;;;;21.63;10.23;;;;;;;;;;685312;28;1588;-68
2023/12/06 00:10:47;;;;;;;21.73;10.35;;;;;;;;;;684544;28;1925;-69
2023/12/06 00:11:07;;;;;;;22.90;10.35;;;;;;;;;;687073;28;1434;-69
2023/12/06 00:11:27;;;;;;;21.77;10.30;;;;;;;;;;687865;28;1756;-68
2023/12/06 00:11:48;;;;;;;20.50;10.07;;;;;;;;;;689054;28;861;-68
2023/12/06 00:12:08;;;;;;;21.00;10.57;;;;;;;;;;686784;28;1504;-68
2023/12/06 00:12:28;;;;;;;19.43;10.73;;;;;;;;;;685139;28;2209;-68
2023/12/06 00:12:48;;;;;;;20.50;11.00;;;;;;;;;;688912;28;4247;-68
2023/12/06 00:13:09;;;;;;;22.17;10.80;;;;;;;;;;689919;28;1006;-68
2023/12/06 00:13:29;;;;;;;21.53;11.10;;;;;;;;;;688097;28;1197;-68
2023/12/06 00:13:49;;;;;;;21.07;10.53;;;;;;;;;;690134;28;932;-68
2023/12/06 00:14:10;;;;;;;19.17;9.80;;;;;;;;;;690497;28;1208;-68
2023/12/06 00:14:30;;;;;;;20.47;9.83;;;;;;;;;;688492;28;1726;-68
2023/12/06 00:14:50;;;;;;;20.80;10.10;;;;;;;;;;689520;28;980;-68
2023/12/06 00:15:11;;;;;;;21.40;10.47;;;;;;;;;;690329;28;1318;-68
2023/12/06 00:15:32;;;;;;;22.00;10.40;;;;;;;;;;688710;28;1675;-69
2023/12/06 00:15:52;;;;;;;21.88;10.50;;;;;;;;;;689234;28;4413;-69
2023/12/06 00:16:13;;;;;;;22.17;11.03;;;;;;;;;;687311;28;1237;-69
2023/12/06 00:16:33;;;;;;;24.57;11.93;;;;;;;;;;685455;28;2722;-69
2023/12/06 00:16:56;;;;;;;21.00;11.40;;;;;;;;;;686963;28;956;-69
2023/12/06 00:17:16;;;;;;;22.23;11.00;;;;;;;;;;686463;28;2583;-69
2023/12/06 00:17:36;;;;;;;22.67;11.47;;;;;;;;;;686815;28;887;-69
2023/12/06 00:17:57;;;;;;;22.43;11.33;;;;;;;;;;689792;28;963;-69
2023/12/06 00:18:17;;;;;;;21.08;10.63;;;;;;;;;;689595;28;2322;-69
2023/12/06 00:18:38;;;;;;;21.50;10.30;;;;;;;;;;689270;28;4278;-68
2023/12/06 00:18:58;;;;;;;22.02;10.63;;;;;;;;;;689502;28;975;-69
2023/12/06 00:19:18;;;;;;;22.97;11.43;;;;;;;;;;689032;28;1859;-69
2023/12/06 00:19:39;;;;;;;24.30;11.23;;;;;;;;;;689864;28;1508;-69
2023/12/06 00:19:59;;;;;;;23.57;10.73;;;;;;;;;;689653;28;897;-69
2023/12/06 00:20:19;;;;;;;22.20;11.00;;;;;;;;;;688240;28;3554;-69
2023/12/06 00:20:40;;;;;;;22.83;11.05;;;;;;;;;;690231;28;1219;-68
2023/12/06 00:21:00;;;;;;;22.73;10.83;;;;;;;;;;689473;28;1002;-69
2023/12/06 00:21:20;;;;;;;22.10;10.73;;;;;;;;;;688873;28;2357;-69
2023/12/06 00:21:41;;;;;;;21.23;10.50;;;;;;;;;;689654;28;4450;-69
2023/12/06 00:22:01;;;;;;;21.80;10.90;;;;;;;;;;689057;28;903;-69
2023/12/06 00:22:21;;;;;;;20.07;10.60;;;;;;;;;;688639;28;1748;-69
2023/12/06 00:22:41;;;;;;;22.40;10.50;;;;;;;;;;691137;28;1053;-69
2023/12/06 00:23:02;;;;;;;21.03;10.93;;;;;;;;;;689436;28;968;-68
2023/12/06 00:23:22;;;;;;;19.80;10.70;;;;;;;;;;688113;28;2318;-69
2023/12/06 00:23:43;;;;;;;20.60;10.83;;;;;;;;;;690501;28;1008;-68
2023/12/06 00:24:04;;;;;;;20.23;10.48;;;;;;;;;;689699;28;999;-69
2023/12/06 00:24:24;;;;;;;22.60;11.00;;;;;;;;;;688668;28;1799;-69
2023/12/06 00:24:45;;;;;;;21.90;10.52;;;;;;;;;;690017;28;4258;-69
2023/12/06 00:25:05;;;;;;;20.77;10.53;;;;;;;;;;689675;28;942;-69
2023/12/06 00:25:26;;;;;;;22.33;10.95;;;;;;;;;;688268;28;1861;-69
2023/12/06 00:25:46;;;;;;;19.95;10.10;;;;;;;;;;690258;28;917;-69
2023/12/06 00:26:07;;;;;;;19.77;9.87;;;;;;;;;;689608;28;948;-69
2023/12/06 00:26:27;;;;;;;20.87;10.37;;;;;;;;;;688770;28;2252;-69
2023/12/06 00:26:48;;;;;;;21.58;10.82;;;;;;;;;;690448;28;955;-68
2023/12/06 00:27:08;;;;;;;20.63;10.88;;;;;;;;;;689839;28;910;-68
2023/12/06 00:27:28;;;;;;;19.90;10.70;;;;;;;;;;688179;28;1973;-69
2023/12/06 00:27:49;;;;;;;19.03;10.00;;;;;;;;;;689544;28;4783;-69
2023/12/06 00:28:09;;;;;;;19.73;10.23;;;;;;;;;;686792;28;958;-69
2023/12/06 00:28:29;;;;;;;19.37;10.13;;;;;;;;;;684996;28;2257;-69
2023/12/06 00:28:49;;;;;;;20.20;10.07;;;;;;;;;;686190;28;945;-69
2023/12/06 00:29:09;;;;;;;20.23;10.27;;;;;;;;;;687126;28;1155;-69
2023/12/06 00:29:30;;;;;;;19.40;10.43;;;;;;;;;;688054;28;1939;-69
2023/12/06 00:29:50;;;;;;;18.80;10.07;;;;;;;;;;689596;28;1135;-69
2023/12/06 00:30:10;;;;;;;20.10;10.80;;;;;;;;;;690156;28;816;-69
2023/12/06 00:30:31;;;;;;;20.45;10.48;;;;;;;;;;688430;28;995;-69
2023/12/06 00:30:51;;;;;;;21.97;11.30;;;;;;;;;;689690;28;4366;-69
2023/12/06 00:31:11;;;;;;;22.37;11.00;;;;;;;;;;690283;28;857;-68
2023/12/06 00:31:31;;;;;;;23.02;10.88;;;;;;;;;;686809;28;2235;-69
2023/12/06 00:31:52;;;;;;;20.90;10.67;;;;;;;;;;689588;28;936;-69
2023/12/06 00:32:12;;;;;;;19.83;10.70;;;;;;;;;;690330;28;897;-69
2023/12/06 00:32:32;;;;;;;20.15;10.38;;;;;;;;;;687944;28;1796;-69
2023/12/06 00:32:52;;;;;;;21.97;10.63;;;;;;;;;;689680;28;852;-69
2023/12/06 00:33:13;;;;;;;21.73;10.87;;;;;;;;;;690488;28;913;-69
2023/12/06 00:33:33;;;;;;;21.15;10.57;;;;;;;;;;688071;28;1484;-69
2023/12/06 00:33:53;;;;;;;20.83;10.43;;;;;;;;;;689442;28;4345;-69
2023/12/06 00:34:13;;;;;;;21.47;11.60;;;;;;;;;;690361;28;781;-69
2023/12/06 00:34:34;;;;;;;22.40;11.18;;;;;;;;;;688180;28;1713;-69
2023/12/06 00:34:54;;;;;;;21.73;10.60;;;;;;;;;;690104;28;1015;-68
2023/12/06 00:35:14;;;;;;;21.17;11.10;;;;;;;;;;690624;28;944;-69
2023/12/06 00:35:35;;;;;;;21.67;11.25;;;;;;;;;;687605;28;2253;-69
2023/12/06 00:35:55;;;;;;;21.90;11.40;;;;;;;;;;689425;28;840;-69
2023/12/06 00:36:15;;;;;;;24.13;11.23;;;;;;;;;;690325;28;817;-69
2023/12/06 00:36:35;;;;;;;23.42;10.68;;;;;;;;;;688293;28;2238;-69
2023/12/06 00:36:56;;;;;;;23.47;11.50;;;;;;;;;;688947;28;4219;-69
2023/12/06 00:37:16;;;;;;;21.20;11.07;;;;;;;;;;687621;28;2391;-69
2023/12/06 00:37:36;;;;;;;22.15;10.88;;;;;;;;;;689132;28;948;-69
2023/12/06 00:37:57;;;;;;;23.00;11.30;;;;;;;;;;689415;28;1037;-69
2023/12/06 00:38:17;;;;;;;21.90;11.00;;;;;;;;;;688882;28;2472;-69
2023/12/06 00:38:38;;;;;;;21.87;11.40;;;;;;;;;;689417;28;1388;-69
2023/12/06 00:38:58;;;;;;;20.60;11.27;;;;;;;;;;689874;28;6221;-69
2023/12/06 00:39:18;;;;;;;20.97;11.07;;;;;;;;;;688818;28;2156;-69
2023/12/06 00:39:38;;;;;;;24.70;11.13;;;;;;;;;;689171;28;4323;-69
2023/12/06 00:39:59;;;;;;;23.80;11.40;;;;;;;;;;689051;28;901;-69
2023/12/06 00:40:19;;;;;;;22.73;11.43;;;;;;;;;;689020;28;1596;-69
2023/12/06 00:40:39;;;;;;;22.97;11.50;;;;;;;;;;689312;28;1571;-69
2023/12/06 00:41:00;;;;;;;23.98;11.80;;;;;;;;;;689593;28;1214;-69
2023/12/06 00:41:22;;;;;;;24.33;11.73;;;;;;;;;;688534;28;2378;-69
2023/12/06 00:41:43;;;;;;;22.90;11.85;;;;;;;;;;689126;28;1235;-68
2023/12/06 00:42:03;;;;;;;25.03;12.13;;;;;;;;;;688793;28;940;-69
2023/12/06 00:42:23;;;;;;;23.80;11.77;;;;;;;;;;688430;28;963;-68
2023/12/06 00:42:44;;;;;;;23.40;12.13;;;;;;;;;;689105;28;4291;-69
2023/12/06 00:43:04;;;;;;;22.93;11.43;;;;;;;;;;689498;28;1036;-69
2023/12/06 00:43:24;;;;;;;23.23;11.17;;;;;;;;;;687032;28;2331;-69
2023/12/06 00:43:44;;;;;;;22.33;11.30;;;;;;;;;;688847;28;889;-69
2023/12/06 00:44:05;;;;;;;23.27;11.30;;;;;;;;;;688932;28;1437;-69
2023/12/06 00:44:25;;;;;;;24.67;12.33;;;;;;;;;;688336;28;2387;-69
2023/12/06 00:44:45;;;;;;;25.83;12.17;;;;;;;;;;690319;28;996;-69
2023/12/06 00:45:06;;;;;;;22.23;11.87;;;;;;;;;;689455;28;887;-69
2023/12/06 00:45:26;;;;;;;23.70;12.30;;;;;;;;;;688160;28;2157;-69
2023/12/06 00:45:46;;;;;;;23.43;12.57;;;;;;;;;;689097;28;4382;-69
2023/12/06 00:46:06;;;;;;;22.80;11.97;;;;;;;;;;689140;28;963;-69
2023/12/06 00:46:27;;;;;;;22.00;11.30;;;;;;;;;;688465;28;1730;-68
2023/12/06 00:46:47;;;;;;;21.43;11.33;;;;;;;;;;690000;28;928;-69
2023/12/06 00:47:07;;;;;;;21.43;11.47;;;;;;;;;;689668;28;1098;-68
2023/12/06 00:47:28;;;;;;;22.58;11.85;;;;;;;;;;688698;28;2103;-69
2023/12/06 00:47:48;;;;;;;23.20;11.60;;;;;;;;;;689913;28;1910;-69
2023/12/06 00:48:08;;;;;;;24.50;12.07;;;;;;;;;;689669;28;1022;-68
2023/12/06 00:48:28;;;;;;;23.88;11.70;;;;;;;;;;688944;28;1926;-68
2023/12/06 00:48:48;;;;;;;22.90;11.93;;;;;;;;;;690011;28;4598;-68
2023/12/06 00:49:09;;;;;;;23.90;12.07;;;;;;;;;;690540;28;928;-69
2023/12/06 00:49:30;;;;;;;24.17;12.30;;;;;;;;;;689279;28;1758;-69
2023/12/06 00:49:50;;;;;;;24.63;12.38;;;;;;;;;;690192;28;837;-68
2023/12/06 00:50:10;;;;;;;24.47;12.27;;;;;;;;;;690790;28;781;-68
2023/12/06 00:50:31;;;;;;;23.98;12.18;;;;;;;;;;688980;28;2310;-69
2023/12/06 00:50:51;;;;;;;22.93;12.20;;;;;;;;;;690075;28;1119;-69
2023/12/06 00:51:11;;;;;;;22.27;11.97;;;;;;;;;;690775;28;858;-69
2023/12/06 00:51:31;;;;;;;24.23;11.70;;;;;;;;;;688829;28;2616;-68
2023/12/06 00:51:52;;;;;;;22.27;11.63;;;;;;;;;;689878;28;5248;-69
2023/12/06 00:52:12;;;;;;;23.67;12.03;;;;;;;;;;690625;28;817;-68
2023/12/06 00:52:32;;;;;;;24.37;12.17;;;;;;;;;;685460;28;1311;-69
2023/12/06 00:52:53;;;;;;;22.48;11.30;;;;;;;;;;690329;28;1022;-68
2023/12/06 00:53:13;;;;;;;24.67;11.83;;;;;;;;;;690839;28;980;-68
2023/12/06 00:53:33;;;;;;;24.23;12.48;;;;;;;;;;687898;28;991;-69
2023/12/06 00:53:54;;;;;;;22.40;12.07;;;;;;;;;;690002;28;1089;-69
2023/12/06 00:54:14;;;;;;;23.73;12.60;;;;;;;;;;690855;28;1142;-68
2023/12/06 00:54:34;;;;;;;23.77;11.95;;;;;;;;;;688474;28;1728;-69
2023/12/06 00:54:54;;;;;;;23.17;12.07;;;;;;;;;;687079;28;4265;-69
2023/12/06 00:55:15;;;;;;;23.03;12.10;;;;;;;;;;688002;28;893;-69
2023/12/06 00:55:35;;;;;;;24.70;12.27;;;;;;;;;;686239;28;2243;-69
2023/12/06 00:55:55;;;;;;;24.80;11.90;;;;;;;;;;689599;28;875;-69
2023/12/06 00:56:16;;;;;;;24.47;12.50;;;;;;;;;;690901;28;964;-68
2023/12/06 00:56:36;;;;;;;24.13;12.23;;;;;;;;;;688170;28;957;-68
2023/12/06 00:56:57;;;;;;;22.23;11.30;;;;;;;;;;690504;28;944;-68
2023/12/06 00:57:17;;;;;;;21.60;11.67;;;;;;;;;;690935;28;941;-69
2023/12/06 00:57:37;;;;;;;23.40;12.03;;;;;;;;;;688261;28;4323;-68
2023/12/06 00:57:57;;;;;;;21.83;11.77;;;;;;;;;;689895;28;882;-69
2023/12/06 00:58:17;;;;;;;23.60;11.97;;;;;;;;;;690181;28;959;-69
2023/12/06 00:58:38;;;;;;;23.33;11.80;;;;;;;;;;689727;28;1100;-69
2023/12/06 00:58:58;;;;;;;22.77;11.77;;;;;;;;;;690451;28;904;-69
2023/12/06 00:59:18;;;;;;;23.85;12.32;;;;;;;;;;688954;28;2351;-69
2023/12/06 00:59:39;;;;;;;23.67;12.10;;;;;;;;;;689925;28;1514;-69
2023/12/06 00:59:59;;;;;;;23.17;12.63;;;;;;;;;;690078;28;928;-69
2023/12/06 01:00:19;;;;;;;23.52;12.38;;;;;;;;;;689341;28;1825;-69
2023/12/06 01:00:39;;;;;;;23.90;12.40;;;;;;;;;;689235;28;4343;-69
2023/12/06 01:01:00;;;;;;;23.93;12.30;;;;;;;;;;690111;28;916;-69
2023/12/06 01:01:20;;;;;;;25.95;12.55;;;;;;;;;;689170;28;2236;-68
2023/12/06 01:01:40;;;;;;;23.90;12.13;;;;;;;;;;690399;28;933;-69
2023/12/06 01:02:01;;;;;;;24.95;12.38;;;;;;;;;;689751;28;1223;-68
2023/12/06 01:02:21;;;;;;;24.50;12.47;;;;;;;;;;689265;28;1809;-69
2023/12/06 01:02:41;;;;;;;24.53;12.23;;;;;;;;;;690395;28;1068;-69
2023/12/06 01:03:02;;;;;;;25.83;12.50;;;;;;;;;;689788;28;968;-69
2023/12/06 01:03:22;;;;;;;26.33;13.00;;;;;;;;;;688802;28;1683;-69
2023/12/06 01:03:42;;;;;;;25.90;13.10;;;;;;;;;;687797;28;4284;-68
2023/12/06 01:04:02;;;;;;;23.27;12.50;;;;;;;;;;687872;28;1095;-69
2023/12/06 01:04:23;;;;;;;22.87;12.73;;;;;;;;;;686329;28;1483;-68
2023/12/06 01:04:45;;;;;;;26.23;12.93;;;;;;;;;;687890;28;1002;-69
2023/12/06 01:05:06;;;;;;;25.33;12.40;;;;;;;;;;687347;28;1023;-69
2023/12/06 01:05:26;;;;;;;24.13;12.17;;;;;;;;;;689078;28;1732;-68
2023/12/06 01:05:46;;;;;;;24.10;12.10;;;;;;;;;;691085;28;798;-69
2023/12/06 01:06:08;;;;;;;23.43;11.57;;;;;;;;;;689925;28;1050;-68
2023/12/06 01:06:28;;;;;;;23.95;12.30;;;;;;;;;;689327;28;2328;-68
2023/12/06 01:06:48;;;;;;;23.13;12.10;;;;;;;;;;689902;28;4475;-68
2023/12/06 01:07:09;;;;;;;23.02;12.10;;;;;;;;;;690202;28;1176;-68
2023/12/06 01:07:29;;;;;;;23.90;12.33;;;;;;;;;;688752;28;1768;-69
2023/12/06 01:07:49;;;;;;;25.63;12.83;;;;;;;;;;690212;28;2062;-68
2023/12/06 01:08:09;;;;;;;26.00;12.93;;;;;;;;;;690379;28;1506;-68
2023/12/06 01:08:30;;;;;;;24.50;11.80;;;;;;;;;;689059;28;1747;-68
2023/12/06 01:08:50;;;;;;;24.80;12.57;;;;;;;;;;690345;28;1210;-69
2023/12/06 01:09:10;;;;;;;23.65;12.45;;;;;;;;;;689945;28;844;-68
2023/12/06 01:09:31;;;;;;;24.93;12.90;;;;;;;;;;689154;28;2144;-68
2023/12/06 01:09:51;;;;;;;27.50;13.00;;;;;;;;;;689705;28;4457;-68
2023/12/06 01:10:11;;;;;;;24.50;12.43;;;;;;;;;;690390;28;780;-68
2023/12/06 01:10:33;;;;;;;25.77;13.05;;;;;;;;;;688846;28;1756;-68
2023/12/06 01:10:54;;;;;;;24.20;12.75;;;;;;;;;;690487;28;829;-68
2023/12/06 01:11:14;;;;;;;23.08;12.18;;;;;;;;;;690430;28;833;-68
2023/12/06 01:11:34;;;;;;;24.20;12.00;;;;;;;;;;688982;28;2420;-68
2023/12/06 01:11:55;;;;;;;24.30;12.10;;;;;;;;;;689994;28;832;-68
2023/12/06 01:12:15;;;;;;;24.10;12.43;;;;;;;;;;690801;28;852;-68
2023/12/06 01:12:35;;;;;;;23.63;12.20;;;;;;;;;;689019;28;1698;-68
2023/12/06 01:12:55;;;;;;;25.80;12.77;;;;;;;;;;689984;28;4382;-68
2023/12/06 01:13:16;;;;;;;26.27;12.73;;;;;;;;;;690335;28;1010;-69
2023/12/06 01:13:36;;;;;;;25.33;12.83;;;;;;;;;;688678;28;2519;-69
2023/12/06 01:13:56;;;;;;;24.03;12.83;;;;;;;;;;690514;28;945;-68
2023/12/06 01:14:17;;;;;;;24.00;12.67;;;;;;;;;;691091;28;909;-69
2023/12/06 01:14:37;;;;;;;24.67;13.20;;;;;;;;;;688867;28;2294;-68
2023/12/06 01:14:57;;;;;;;24.60;12.90;;;;;;;;;;690467;28;1334;-68
2023/12/06 01:15:17;;;;;;;25.43;12.83;;;;;;;;;;690584;28;855;-68
2023/12/06 01:15:38;;;;;;;23.57;12.07;;;;;;;;;;688189;28;4457;-68
2023/12/06 01:15:59;;;;;;;23.90;12.18;;;;;;;;;;689791;28;1018;-68
2023/12/06 01:16:19;;;;;;;24.88;12.80;;;;;;;;;;689509;28;3538;-68
2023/12/06 01:16:40;;;;;;;24.27;12.43;;;;;;;;;;690184;28;1249;-69
2023/12/06 01:17:00;;;;;;;24.98;12.63;;;;;;;;;;690262;28;944;-69
2023/12/06 01:17:20;;;;;;;26.27;12.80;;;;;;;;;;688517;28;1951;-69
2023/12/06 01:17:40;;;;;;;25.07;13.00;;;;;;;;;;687061;28;901;-68
2023/12/06 01:18:01;;;;;;;23.42;12.88;;;;;;;;;;687388;28;988;-68
2023/12/06 01:18:21;;;;;;;21.90;11.57;;;;;;;;;;686306;28;979;-68
2023/12/06 01:18:42;;;;;;;22.70;11.82;;;;;;;;;;686893;28;4319;-68
2023/12/06 01:19:02;;;;;;;24.93;11.63;;;;;;;;;;687412;28;990;-68
2023/12/06 01:19:22;;;;;;;23.73;12.07;;;;;;;;;;688999;28;2593;-68
2023/12/06 01:19:43;;;;;;;23.87;12.00;;;;;;;;;;689993;28;1156;-69
2023/12/06 01:20:06;;;;;;;24.80;11.83;;;;;;;;;;690192;28;983;-68
2023/12/06 01:20:26;;;;;;;24.67;12.52;;;;;;;;;;689106;28;1781;-69
2023/12/06 01:20:46;;;;;;;24.88;12.98;;;;;;;;;;690768;28;864;-69
2023/12/06 01:21:06;;;;;;;25.07;13.13;;;;;;;;;;690131;28;912;-71
2023/12/06 01:21:26;;;;;;;25.27;12.30;;;;;;;;;;688814;28;2024;-69
2023/12/06 01:21:47;;;;;;;23.43;12.40;;;;;;;;;;686768;28;4452;-70
2023/12/06 01:22:07;;;;;;;23.85;11.80;;;;;;;;;;687725;28;1211;-69
2023/12/06 01:22:27;;;;;;;24.37;11.93;;;;;;;;;;686142;28;1831;-68
2023/12/06 01:22:47;;;;;;;24.33;12.33;;;;;;;;;;684739;28;1341;-68
2023/12/06 01:23:08;;;;;;;24.58;12.23;;;;;;;;;;685165;28;862;-69
2023/12/06 01:23:28;;;;;;;23.10;12.03;;;;;;;;;;683582;28;1745;-68
2023/12/06 01:23:48;;;;;;;25.30;11.93;;;;;;;;;;687364;28;850;-68
2023/12/06 01:24:09;;;;;;;25.17;12.60;;;;;;;;;;687521;28;858;-68
2023/12/06 01:24:29;;;;;;;24.53;12.43;;;;;;;;;;686082;28;2207;-69
2023/12/06 01:24:49;;;;;;;26.33;12.90;;;;;;;;;;688459;28;4420;-69
2023/12/06 01:25:09;;;;;;;25.52;12.95;;;;;;;;;;690740;28;999;-68
2023/12/06 01:25:30;;;;;;;23.80;12.57;;;;;;;;;;688999;28;2214;-68
2023/12/06 01:25:50;;;;;;;23.47;12.57;;;;;;;;;;689838;28;1294;-69
2023/12/06 01:26:10;;;;;;;26.17;12.60;;;;;;;;;;687449;28;907;-69
2023/12/06 01:26:30;;;;;;;25.57;12.37;;;;;;;;;;686150;28;1105;-69
2023/12/06 01:26:51;;;;;;;25.20;12.83;;;;;;;;;;687573;28;1138;-68
2023/12/06 01:27:11;;;;;;;25.23;12.70;;;;;;;;;;687511;28;936;-69
2023/12/06 01:27:31;;;;;;;24.23;12.30;;;;;;;;;;686073;28;2537;-69
2023/12/06 01:27:51;;;;;;;25.73;12.70;;;;;;;;;;687022;28;4323;-70
2023/12/06 01:28:12;;;;;;;25.35;12.90;;;;;;;;;;690459;28;849;-69
2023/12/06 01:28:32;;;;;;;25.37;12.77;;;;;;;;;;685908;28;1793;-69
2023/12/06 01:28:53;;;;;;;25.48;12.50;;;;;;;;;;687480;28;960;-70
2023/12/06 01:29:13;;;;;;;27.83;12.80;;;;;;;;;;687940;28;908;-69
2023/12/06 01:29:33;;;;;;;27.87;13.57;;;;;;;;;;689118;28;1832;-68
2023/12/06 01:29:53;;;;;;;26.20;13.13;;;;;;;;;;686356;28;970;-69
2023/12/06 01:30:14;;;;;;;27.17;13.33;;;;;;;;;;687804;28;881;-69
2023/12/06 01:30:34;;;;;;;27.57;13.23;;;;;;;;;;688675;28;1465;-69
2023/12/06 01:30:54;;;;;;;26.30;12.40;;;;;;;;;;686991;28;4372;-68
2023/12/06 01:31:14;;;;;;;26.33;12.60;;;;;;;;;;687389;28;762;-68
2023/12/06 01:31:35;;;;;;;23.83;12.67;;;;;;;;;;685230;28;2202;-69
2023/12/06 01:31:55;;;;;;;25.30;13.10;;;;;;;;;;690000;28;950;-69
2023/12/06 01:32:15;;;;;;;25.73;12.77;;;;;;;;;;690291;28;924;-69
2023/12/06 01:32:36;;;;;;;25.90;13.33;;;;;;;;;;688535;28;2615;-68
2023/12/06 01:32:56;;;;;;;24.60;12.77;;;;;;;;;;690245;28;1365;-68
2023/12/06 01:33:16;;;;;;;24.60;12.20;;;;;;;;;;690642;28;794;-68
2023/12/06 01:33:36;;;;;;;24.07;12.17;;;;;;;;;;688732;28;2390;-69
2023/12/06 01:33:57;;;;;;;24.58;12.73;;;;;;;;;;689431;28;4633;-69
2023/12/06 01:34:18;;;;;;;25.57;12.57;;;;;;;;;;690377;28;861;-69
2023/12/06 01:34:39;;;;;;;24.75;12.52;;;;;;;;;;689154;28;1599;-69
2023/12/06 01:34:59;;;;;;;23.55;12.07;;;;;;;;;;690113;28;966;-68
2023/12/06 01:35:20;;;;;;;25.07;12.20;;;;;;;;;;689953;28;946;-68
2023/12/06 01:35:40;;;;;;;25.60;12.80;;;;;;;;;;690191;28;1208;-68
2023/12/06 01:36:00;;;;;;;24.80;12.33;;;;;;;;;;689831;28;904;-69
2023/12/06 01:36:21;;;;;;;24.47;12.23;;;;;;;;;;688782;28;924;-67
2023/12/06 01:36:41;;;;;;;23.42;11.98;;;;;;;;;;692126;28;4449;-69
2023/12/06 01:37:01;;;;;;;24.27;12.27;;;;;;;;;;691489;28;920;-68
2023/12/06 01:37:21;;;;;;;24.33;12.67;;;;;;;;;;690464;28;912;-68
2023/12/06 01:37:42;;;;;;;23.95;12.45;;;;;;;;;;690131;28;1449;-69
2023/12/06 01:38:02;;;;;;;24.73;12.30;;;;;;;;;;689574;28;959;-69
2023/12/06 01:38:22;;;;;;;25.50;13.13;;;;;;;;;;688137;28;1828;-69
2023/12/06 01:38:43;;;;;;;26.60;13.70;;;;;;;;;;690520;28;1206;-68
2023/12/06 01:39:03;;;;;;;26.33;13.23;;;;;;;;;;689218;28;6288;-68
2023/12/06 01:39:23;;;;;;;25.07;12.83;;;;;;;;;;687854;28;1187;-68
2023/12/06 01:39:44;;;;;;;25.20;12.80;;;;;;;;;;689457;28;4271;-69
2023/12/06 01:40:04;;;;;;;26.10;12.97;;;;;;;;;;690172;28;1049;-69
2023/12/06 01:40:25;;;;;;;25.27;13.15;;;;;;;;;;688443;28;1843;-68
2023/12/06 01:40:45;;;;;;;23.47;12.40;;;;;;;;;;688494;28;833;-68
2023/12/06 01:41:05;;;;;;;23.70;12.63;;;;;;;;;;689873;28;1197;-68
2023/12/06 01:41:26;;;;;;;25.90;13.20;;;;;;;;;;688891;28;1799;-68
2023/12/06 01:41:50;;;;;;;26.67;13.18;;;;;;;;;;690693;28;821;-68
2023/12/06 01:42:11;;;;;;;28.85;13.95;;;;;;;;;;690438;28;972;-68
2023/12/06 01:42:31;;;;;;;25.50;13.20;;;;;;;;;;688418;28;2306;-69
2023/12/06 01:42:52;;;;;;;26.47;13.17;;;;;;;;;;689268;28;4544;-68
2023/12/06 01:43:12;;;;;;;26.52;13.02;;;;;;;;;;690712;28;939;-68
2023/12/06 01:43:33;;;;;;;25.63;13.23;;;;;;;;;;688435;28;2272;-68
2023/12/06 01:43:53;;;;;;;25.13;12.90;;;;;;;;;;689660;28;948;-68
2023/12/06 01:44:13;;;;;;;27.03;13.67;;;;;;;;;;690624;28;785;-69
2023/12/06 01:44:33;;;;;;;25.60;12.50;;;;;;;;;;688458;28;1915;-69
2023/12/06 01:44:53;;;;;;;25.92;12.77;;;;;;;;;;690000;28;928;-68
2023/12/06 01:45:14;;;;;;;26.53;13.27;;;;;;;;;;690637;28;908;-69
2023/12/06 01:45:35;;;;;;;25.48;12.63;;;;;;;;;;689156;28;1196;-69
2023/12/06 01:45:55;;;;;;;24.60;12.60;;;;;;;;;;689841;28;4376;-68
2023/12/06 01:46:15;;;;;;;23.48;12.40;;;;;;;;;;690190;28;889;-69
2023/12/06 01:46:38;;;;;;;26.63;13.03;;;;;;;;;;688112;28;1437;-69
2023/12/06 01:46:58;;;;;;;28.38;13.52;;;;;;;;;;689958;28;971;-68
2023/12/06 01:47:19;;;;;;;24.70;12.07;;;;;;;;;;690570;28;805;-69
2023/12/06 01:47:39;;;;;;;24.57;12.00;;;;;;;;;;686576;28;2342;-68
2023/12/06 01:48:00;;;;;;;24.83;12.17;;;;;;;;;;686760;28;1953;-69
2023/12/06 01:48:21;;;;;;;26.33;12.80;;;;;;;;;;689546;28;915;-69
2023/12/06 01:48:42;;;;;;;25.35;12.55;;;;;;;;;;689283;28;4383;-69
2023/12/06 01:49:02;;;;;;;24.77;12.07;;;;;;;;;;690068;28;1017;-69
2023/12/06 01:49:23;;;;;;;26.73;12.38;;;;;;;;;;687527;28;2294;-68
2023/12/06 01:49:43;;;;;;;26.37;13.33;;;;;;;;;;690277;28;877;-68
2023/12/06 01:50:04;;;;;;;28.25;13.32;;;;;;;;;;690155;28;1004;-69
2023/12/06 01:50:25;;;;;;;27.33;12.80;;;;;;;;;;687856;28;1757;-68
2023/12/06 01:50:46;;;;;;;24.57;12.43;;;;;;;;;;690056;28;801;-69
2023/12/06 01:51:06;;;;;;;25.17;13.30;;;;;;;;;;687438;28;1290;-69
2023/12/06 01:51:27;;;;;;;26.23;12.98;;;;;;;;;;682130;28;1330;-69
2023/12/06 01:51:48;;;;;;;26.05;12.38;;;;;;;;;;686556;28;4449;-69
2023/12/06 01:52:08;;;;;;;24.57;12.57;;;;;;;;;;687342;28;838;-69
2023/12/06 01:52:28;;;;;;;26.15;13.27;;;;;;;;;;685415;28;967;-69
2023/12/06 01:52:48;;;;;;;26.23;12.17;;;;;;;;;;687689;28;1014;-69
2023/12/06 01:53:09;;;;;;;24.97;12.00;;;;;;;;;;688969;28;1543;-69
2023/12/06 01:53:30;;;;;;;25.85;12.75;;;;;;;;;;688175;28;2380;-69
2023/12/06 01:53:50;;;;;;;26.38;13.45;;;;;;;;;;690180;28;1823;-69
2023/12/06 01:54:11;;;;;;;23.27;12.57;;;;;;;;;;690206;28;947;-69
2023/12/06 01:54:31;;;;;;;24.90;12.80;;;;;;;;;;688622;28;1743;-69
2023/12/06 01:54:51;;;;;;;27.37;12.83;;;;;;;;;;689042;28;4574;-68
2023/12/06 01:55:12;;;;;;;25.50;12.50;;;;;;;;;;687677;28;1375;-69
2023/12/06 01:55:33;;;;;;;26.42;12.88;;;;;;;;;;685766;28;2465;-69
2023/12/06 01:55:53;;;;;;;24.92;12.32;;;;;;;;;;687162;28;1148;-68
2023/12/06 01:56:14;;;;;;;25.13;12.47;;;;;;;;;;685066;28;1554;-68
2023/12/06 01:56:35;;;;;;;26.57;13.00;;;;;;;;;;685791;28;1373;-69
2023/12/06 01:56:55;;;;;;;27.05;13.20;;;;;;;;;;686939;28;956;-69
2023/12/06 01:57:16;;;;;;;26.40;13.63;;;;;;;;;;685268;28;881;-69
2023/12/06 01:57:36;;;;;;;25.95;13.30;;;;;;;;;;682774;28;1478;-69
2023/12/06 01:57:57;;;;;;;27.93;13.73;;;;;;;;;;686531;28;4262;-69
2023/12/06 01:58:17;;;;;;;27.90;14.07;;;;;;;;;;690677;28;868;-69
2023/12/06 01:58:38;;;;;;;28.27;13.73;;;;;;;;;;690106;28;1789;-69
2023/12/06 01:58:59;;;;;;;27.50;13.98;;;;;;;;;;689450;28;890;-69
2023/12/06 01:59:19;;;;;;;26.70;13.30;;;;;;;;;;690420;28;1189;-69
2023/12/06 01:59:40;;;;;;;25.17;13.33;;;;;;;;;;690031;28;1823;-69
2023/12/06 02:00:00;;;;;;;26.38;13.75;;;;;;;;;;689634;28;1015;-69
2023/12/06 02:00:20;;;;;;;26.55;13.43;;;;;;;;;;689661;28;1469;-68
2023/12/06 02:00:41;;;;;;;25.37;13.80;;;;;;;;;;688468;28;4431;-69
2023/12/06 02:01:01;;;;;;;27.20;13.57;;;;;;;;;;689981;28;994;-69
2023/12/06 02:01:22;;;;;;;27.52;13.63;;;;;;;;;;689732;28;924;-69
2023/12/06 02:01:42;;;;;;;25.90;13.27;;;;;;;;;;690388;28;2197;-69
2023/12/06 02:02:02;;;;;;;27.27;13.82;;;;;;;;;;689914;28;999;-68
2023/12/06 02:02:23;;;;;;;26.23;13.33;;;;;;;;;;688672;28;1634;-69
2023/12/06 02:02:44;;;;;;;26.50;13.35;;;;;;;;;;690120;28;923;-69
2023/12/06 02:03:05;;;;;;;28.92;14.07;;;;;;;;;;689198;28;965;-69